Meiser, Pennsylvania
Current Conditions -  °F | °C
As of 2:53 PM on Thursday 29 Jan 2015 (Local Time) from KSEG Reporting Station
Overcast Overcast  
Wind Chill: 25°   Ceiling: 6000
Heat Index: 32°   Visibility: 10mi
Dew Point:   Wind: 8mph
Humidity: 34%   Direction: 210°SSW
Pressure: 30.03"   Gusts: NA
Location:  40.7851°N, 77.0335°W
Report Text: KSEG 291953Z AUTO 21007KT 10SM BKN060 OVC075 00/M14 A3003 RMK AO2 SLP177 T00001144
Loading
Personal Weather Stations






























Interactive Weather Map New forecast layout! Learn more

10-Day Weather Forecast

Advertisements
Track Severe Weather on mobile